sensor_id;sensor_type;location;lat;lon;timestamp;pressure;altitude;pressure_sealevel;temperature;humidity
51452;BME280;37521;52.020;-1.740;2023-01-29T00:02:22;101355.25;;;2.04;100.00
51452;BME280;37521;52.020;-1.740;2023-01-29T00:04:51;101351.78;;;2.03;100.00
51452;BME280;37521;52.020;-1.740;2023-01-29T00:07:25;101358.75;;;2.04;100.00
51452;BME280;37521;52.020;-1.740;2023-01-29T00:09:54;101350.06;;;2.05;100.00
51452;BME280;37521;52.020;-1.740;2023-01-29T00:12:22;101356.13;;;2.03;100.00
51452;BME280;37521;52.020;-1.740;2023-01-29T00:14:50;101349.13;;;2.00;100.00
51452;BME280;37521;52.020;-1.740;2023-01-29T00:17:18;101350.84;;;1.97;100.00
51452;BME280;37521;52.020;-1.740;2023-01-29T00:19:47;101342.97;;;1.92;100.00
51452;BME280;37521;52.020;-1.740;2023-01-29T00:22:15;101334.28;;;1.90;100.00
51452;BME280;37521;52.020;-1.740;2023-01-29T00:24:45;101327.28;;;1.83;100.00
51452;BME280;37521;52.020;-1.740;2023-01-29T00:27:13;101343.69;;;1.74;100.00
51452;BME280;37521;52.020;-1.740;2023-01-29T00:29:41;101338.34;;;1.65;100.00
51452;BME280;37521;52.020;-1.740;2023-01-29T00:32:09;101333.13;;;1.62;100.00
51452;BME280;37521;52.020;-1.740;2023-01-29T00:34:37;101349.56;;;1.59;100.00
51452;BME280;37521;52.020;-1.740;2023-01-29T00:37:06;101341.75;;;1.58;100.00
51452;BME280;37521;52.020;-1.740;2023-01-29T00:39:35;101346.09;;;1.59;100.00
51452;BME280;37521;52.020;-1.740;2023-01-29T00:42:15;101356.50;;;1.60;100.00
51452;BME280;37521;52.020;-1.740;2023-01-29T00:45:01;101346.09;;;1.60;100.00
51452;BME280;37521;52.020;-1.740;2023-01-29T00:47:29;101343.50;;;1.60;100.00
51452;BME280;37521;52.020;-1.740;2023-01-29T00:50:00;101347.88;;;1.61;100.00
51452;BME280;37521;52.020;-1.740;2023-01-29T00:52:28;101350.41;;;1.57;100.00
51452;BME280;37521;52.020;-1.740;2023-01-29T00:54:58;101346.06;;;1.54;100.00
51452;BME280;37521;52.020;-1.740;2023-01-29T00:57:30;101344.25;;;1.50;100.00
51452;BME280;37521;52.020;-1.740;2023-01-29T00:59:59;101346.78;;;1.46;100.00
51452;BME280;37521;52.020;-1.740;2023-01-29T01:02:27;101344.16;;;1.41;100.00
51452;BME280;37521;52.020;-1.740;2023-01-29T01:05:15;101355.38;;;1.39;100.00
51452;BME280;37521;52.020;-1.740;2023-01-29T01:07:45;101356.25;;;1.39;100.00
51452;BME280;37521;52.020;-1.740;2023-01-29T01:10:15;101356.31;;;1.42;100.00
51452;BME280;37521;52.020;-1.740;2023-01-29T01:12:54;101353.72;;;1.44;100.00
51452;BME280;37521;52.020;-1.740;2023-01-29T01:15:25;101348.53;;;1.47;100.00
51452;BME280;37521;52.020;-1.740;2023-01-29T01:17:55;101344.22;;;1.47;100.00
51452;BME280;37521;52.020;-1.740;2023-01-29T01:20:24;101337.31;;;1.49;100.00
51452;BME280;37521;52.020;-1.740;2023-01-29T01:22:53;101335.59;;;1.51;100.00
51452;BME280;37521;52.020;-1.740;2023-01-29T01:25:23;101339.91;;;1.51;100.00
51452;BME280;37521;52.020;-1.740;2023-01-29T01:27:53;101339.91;;;1.48;100.00
51452;BME280;37521;52.020;-1.740;2023-01-29T01:30:22;101331.22;;;1.47;100.00
51452;BME280;37521;52.020;-1.740;2023-01-29T01:32:51;101328.56;;;1.44;100.00
51452;BME280;37521;52.020;-1.740;2023-01-29T01:35:19;101317.22;;;1.39;100.00
51452;BME280;37521;52.020;-1.740;2023-01-29T01:37:48;101317.19;;;1.36;100.00
51452;BME280;37521;52.020;-1.740;2023-01-29T01:40:17;101306.78;;;1.34;100.00
51452;BME280;37521;52.020;-1.740;2023-01-29T01:42:47;101309.38;;;1.36;100.00
51452;BME280;37521;52.020;-1.740;2023-01-29T01:45:21;101312.00;;;1.36;100.00
51452;BME280;37521;52.020;-1.740;2023-01-29T01:47:54;101303.34;;;1.39;100.00
51452;BME280;37521;52.020;-1.740;2023-01-29T01:50:26;101301.66;;;1.41;100.00
51452;BME280;37521;52.020;-1.740;2023-01-29T01:52:59;101299.03;;;1.41;100.00
51452;BME280;37521;52.020;-1.740;2023-01-29T01:55:30;101290.38;;;1.43;100.00
51452;BME280;37521;52.020;-1.740;2023-01-29T01:58:04;101290.38;;;1.43;100.00
51452;BME280;37521;52.020;-1.740;2023-01-29T02:00:38;101282.56;;;1.42;100.00
51452;BME280;37521;52.020;-1.740;2023-01-29T02:03:08;101286.94;;;1.44;100.00
51452;BME280;37521;52.020;-1.740;2023-01-29T02:05:58;101281.72;;;1.44;100.00
51452;BME280;37521;52.020;-1.740;2023-01-29T02:08:48;101286.91;;;1.41;100.00
51452;BME280;37521;52.020;-1.740;2023-01-29T02:11:36;101293.78;;;1.36;100.00
51452;BME280;37521;52.020;-1.740;2023-01-29T02:14:05;101278.94;;;1.27;100.00
51452;BME280;37521;52.020;-1.740;2023-01-29T02:16:35;101285.78;;;1.21;100.00
51452;BME280;37521;52.020;-1.740;2023-01-29T02:19:09;101289.09;;;1.09;100.00
51452;BME280;37521;52.020;-1.740;2023-01-29T02:21:54;101283.75;;;0.97;100.00
51452;BME280;37521;52.020;-1.740;2023-01-29T02:24:57;101290.56;;;0.89;100.00
51452;BME280;37521;52.020;-1.740;2023-01-29T02:27:59;101281.81;;;0.84;100.00
51452;BME280;37521;52.020;-1.740;2023-01-29T02:30:33;101274.88;;;0.82;100.00
51452;BME280;37521;52.020;-1.740;2023-01-29T02:33:07;101269.72;;;0.86;100.00
51452;BME280;37521;52.020;-1.740;2023-01-29T02:35:42;101270.59;;;0.86;100.00
51452;BME280;37521;52.020;-1.740;2023-01-29T02:38:18;101265.44;;;0.88;100.00
51452;BME280;37521;52.020;-1.740;2023-01-29T02:40:52;101262.00;;;0.93;100.00
51452;BME280;37521;52.020;-1.740;2023-01-29T02:43:29;101259.50;;;0.99;100.00
51452;BME280;37521;52.020;-1.740;2023-01-29T02:46:06;101251.72;;;1.01;100.00
51452;BME280;37521;52.020;-1.740;2023-01-29T02:48:41;101241.28;;;0.99;100.00
51452;BME280;37521;52.020;-1.740;2023-01-29T02:51:17;101238.66;;;0.95;100.00
51452;BME280;37521;52.020;-1.740;2023-01-29T02:53:52;101237.66;;;0.87;100.00
51452;BME280;37521;52.020;-1.740;2023-01-29T02:56:27;101235.78;;;0.75;100.00
51452;BME280;37521;52.020;-1.740;2023-01-29T02:59:02;101233.03;;;0.64;100.00
51452;BME280;37521;52.020;-1.740;2023-01-29T03:01:37;101229.47;;;0.56;100.00
51452;BME280;37521;52.020;-1.740;2023-01-29T03:04:11;101228.50;;;0.49;100.00
51452;BME280;37521;52.020;-1.740;2023-01-29T03:06:42;101226.69;;;0.42;100.00
51452;BME280;37521;52.020;-1.740;2023-01-29T03:09:18;101225.81;;;0.42;100.00
51452;BME280;37521;52.020;-1.740;2023-01-29T03:11:52;101216.28;;;0.44;100.00
51452;BME280;37521;52.020;-1.740;2023-01-29T03:14:29;101219.84;;;0.50;100.00
51452;BME280;37521;52.020;-1.740;2023-01-29T03:17:20;101224.28;;;0.58;100.00
51452;BME280;37521;52.020;-1.740;2023-01-29T03:19:50;101220.06;;;0.66;100.00
51452;BME280;37521;52.020;-1.740;2023-01-29T03:22:21;101221.88;;;0.73;100.00
51452;BME280;37521;52.020;-1.740;2023-01-29T03:24:54;101211.56;;;0.79;100.00
51452;BME280;37521;52.020;-1.740;2023-01-29T03:27:46;101203.84;;;0.87;100.00
51452;BME280;37521;52.020;-1.740;2023-01-29T03:30:43;101196.19;;;0.94;100.00
51452;BME280;37521;52.020;-1.740;2023-01-29T03:33:43;101199.69;;;0.99;100.00
51452;BME280;37521;52.020;-1.740;2023-01-29T03:36:15;101196.25;;;1.00;100.00
51452;BME280;37521;52.020;-1.740;2023-01-29T03:38:45;101187.59;;;1.01;100.00
51452;BME280;37521;52.020;-1.740;2023-01-29T03:41:22;101187.59;;;1.01;100.00
51452;BME280;37521;52.020;-1.740;2023-01-29T03:43:56;101185.00;;;1.03;100.00
51452;BME280;37521;52.020;-1.740;2023-01-29T03:46:32;101183.28;;;1.05;100.00
51452;BME280;37521;52.020;-1.740;2023-01-29T03:49:10;101179.03;;;1.12;100.00
51452;BME280;37521;52.020;-1.740;2023-01-29T03:51:44;101183.34;;;1.11;100.00
51452;BME280;37521;52.020;-1.740;2023-01-29T03:54:22;101186.81;;;1.12;100.00
51452;BME280;37521;52.020;-1.740;2023-01-29T03:56:58;101184.22;;;1.12;100.00
51452;BME280;37521;52.020;-1.740;2023-01-29T03:59:35;101184.22;;;1.12;100.00
51452;BME280;37521;52.020;-1.740;2023-01-29T04:02:30;101184.22;;;1.10;100.00
51452;BME280;37521;52.020;-1.740;2023-01-29T04:05:08;101178.13;;;1.09;100.00
51452;BME280;37521;52.020;-1.740;2023-01-29T04:07:51;101186.88;;;1.15;100.00
51452;BME280;37521;52.020;-1.740;2023-01-29T04:10:24;101186.03;;;1.19;100.00
51452;BME280;37521;52.020;-1.740;2023-01-29T04:12:57;101180.00;;;1.21;100.00
51452;BME280;37521;52.020;-1.740;2023-01-29T04:15:30;101185.22;;;1.24;100.00
51452;BME280;37521;52.020;-1.740;2023-01-29T04:18:02;101173.06;;;1.23;100.00
51452;BME280;37521;52.020;-1.740;2023-01-29T04:20:42;101182.56;;;1.17;100.00
51452;BME280;37521;52.020;-1.740;2023-01-29T04:23:19;101166.84;;;1.07;100.00
51452;BME280;37521;52.020;-1.740;2023-01-29T04:25:56;101182.38;;;1.01;100.00
51452;BME280;37521;52.020;-1.740;2023-01-29T04:28:46;101174.53;;;1.00;100.00
51452;BME280;37521;52.020;-1.740;2023-01-29T04:31:22;101163.25;;;0.98;100.00
51452;BME280;37521;52.020;-1.740;2023-01-29T04:34:02;101161.44;;;0.91;100.00
51452;BME280;37521;52.020;-1.740;2023-01-29T04:36:40;101153.50;;;0.80;100.00
51452;BME280;37521;52.020;-1.740;2023-01-29T04:39:17;101152.53;;;0.69;100.00
51452;BME280;37521;52.020;-1.740;2023-01-29T04:41:51;101153.22;;;0.54;100.00
51452;BME280;37521;52.020;-1.740;2023-01-29T04:44:27;101148.72;;;0.42;100.00
51452;BME280;37521;52.020;-1.740;2023-01-29T04:47:04;101153.75;;;0.30;100.00
51452;BME280;37521;52.020;-1.740;2023-01-29T04:49:44;101156.16;;;0.16;100.00
51452;BME280;37521;52.020;-1.740;2023-01-29T04:52:18;101155.09;;;0.04;100.00
51452;BME280;37521;52.020;-1.740;2023-01-29T04:54:56;101155.63;;;-0.19;100.00
51452;BME280;37521;52.020;-1.740;2023-01-29T04:57:33;101138.03;;;-0.37;100.00
51452;BME280;37521;52.020;-1.740;2023-01-29T05:00:07;101135.22;;;-0.50;100.00
51452;BME280;37521;52.020;-1.740;2023-01-29T05:02:40;101134.22;;;-0.60;100.00
51452;BME280;37521;52.020;-1.740;2023-01-29T05:05:12;101129.03;;;-0.60;100.00
51452;BME280;37521;52.020;-1.740;2023-01-29T05:07:43;101121.25;;;-0.60;100.00
51452;BME280;37521;52.020;-1.740;2023-01-29T05:10:12;101123.88;;;-0.57;100.00
51452;BME280;37521;52.020;-1.740;2023-01-29T05:12:45;101117.84;;;-0.55;100.00
51452;BME280;37521;52.020;-1.740;2023-01-29T05:15:19;101107.66;;;-0.45;100.00
51452;BME280;37521;52.020;-1.740;2023-01-29T05:17:49;101110.34;;;-0.39;100.00
51452;BME280;37521;52.020;-1.740;2023-01-29T05:20:21;101109.47;;;-0.38;100.00
51452;BME280;37521;52.020;-1.740;2023-01-29T05:22:49;101102.59;;;-0.36;100.00
51452;BME280;37521;52.020;-1.740;2023-01-29T05:25:20;101094.19;;;-0.20;100.00
51452;BME280;37521;52.020;-1.740;2023-01-29T05:27:51;101098.09;;;0.11;100.00
51452;BME280;37521;52.020;-1.740;2023-01-29T05:30:38;101086.31;;;0.39;100.00
51452;BME280;37521;52.020;-1.740;2023-01-29T05:33:11;101077.06;;;0.61;100.00
51452;BME280;37521;52.020;-1.740;2023-01-29T05:35:41;101067.69;;;0.74;100.00
51452;BME280;37521;52.020;-1.740;2023-01-29T05:38:10;101070.31;;;0.80;100.00
51452;BME280;37521;52.020;-1.740;2023-01-29T05:40:39;101061.72;;;0.86;100.00
51452;BME280;37521;52.020;-1.740;2023-01-29T05:43:14;101057.56;;;1.01;100.00
51452;BME280;37521;52.020;-1.740;2023-01-29T05:45:43;101058.56;;;1.17;100.00
51452;BME280;37521;52.020;-1.740;2023-01-29T05:48:18;101063.06;;;1.35;100.00
51452;BME280;37521;52.020;-1.740;2023-01-29T05:50:48;101067.50;;;1.51;100.00
51452;BME280;37521;52.020;-1.740;2023-01-29T05:53:16;101064.09;;;1.60;100.00
51452;BME280;37521;52.020;-1.740;2023-01-29T05:55:45;101058.97;;;1.74;100.00
51452;BME280;37521;52.020;-1.740;2023-01-29T05:58:13;101055.59;;;1.82;100.00
51452;BME280;37521;52.020;-1.740;2023-01-29T06:00:41;101044.31;;;1.86;100.00
51452;BME280;37521;52.020;-1.740;2023-01-29T06:03:10;101046.94;;;1.91;100.00
51452;BME280;37521;52.020;-1.740;2023-01-29T06:05:38;101042.63;;;1.95;100.00
51452;BME280;37521;52.020;-1.740;2023-01-29T06:08:08;101039.16;;;1.97;100.00
51452;BME280;37521;52.020;-1.740;2023-01-29T06:10:36;101040.91;;;1.98;100.00
51452;BME280;37521;52.020;-1.740;2023-01-29T06:13:04;101043.50;;;2.00;100.00
51452;BME280;37521;52.020;-1.740;2023-01-29T06:15:32;101028.75;;;2.00;100.00
51452;BME280;37521;52.020;-1.740;2023-01-29T06:18:01;101029.66;;;2.01;100.00
51452;BME280;37521;52.020;-1.740;2023-01-29T06:20:29;101037.47;;;2.02;100.00
51452;BME280;37521;52.020;-1.740;2023-01-29T06:22:57;101034.00;;;2.03;100.00
51452;BME280;37521;52.020;-1.740;2023-01-29T06:25:27;101039.16;;;2.00;100.00
51452;BME280;37521;52.020;-1.740;2023-01-29T06:27:55;101027.88;;;1.95;100.00
51452;BME280;37521;52.020;-1.740;2023-01-29T06:30:25;101023.50;;;1.91;100.00
51452;BME280;37521;52.020;-1.740;2023-01-29T06:32:55;101024.34;;;1.84;100.00
51452;BME280;37521;52.020;-1.740;2023-01-29T06:35:25;101020.00;;;1.83;100.00
51452;BME280;37521;52.020;-1.740;2023-01-29T06:37:53;101025.19;;;1.83;100.00
51452;BME280;37521;52.020;-1.740;2023-01-29T06:40:21;101026.94;;;1.84;100.00
51452;BME280;37521;52.020;-1.740;2023-01-29T06:42:50;101033.00;;;1.83;100.00
51452;BME280;37521;52.020;-1.740;2023-01-29T06:45:19;101031.25;;;1.79;100.00
51452;BME280;37521;52.020;-1.740;2023-01-29T06:47:47;101026.91;;;1.75;100.00
51452;BME280;37521;52.020;-1.740;2023-01-29T06:50:15;101025.13;;;1.71;100.00
51452;BME280;37521;52.020;-1.740;2023-01-29T06:52:44;101028.59;;;1.68;100.00
51452;BME280;37521;52.020;-1.740;2023-01-29T06:55:12;101022.47;;;1.63;100.00
51452;BME280;37521;52.020;-1.740;2023-01-29T06:57:41;101018.97;;;1.59;100.00
51452;BME280;37521;52.020;-1.740;2023-01-29T07:00:11;101010.28;;;1.60;100.00
51452;BME280;37521;52.020;-1.740;2023-01-29T07:02:40;101020.72;;;1.60;100.00
51452;BME280;37521;52.020;-1.740;2023-01-29T07:05:08;101021.59;;;1.62;100.00
51452;BME280;37521;52.020;-1.740;2023-01-29T07:07:36;101020.75;;;1.65;100.00
51452;BME280;37521;52.020;-1.740;2023-01-29T07:10:05;101026.84;;;1.69;100.00
51452;BME280;37521;52.020;-1.740;2023-01-29T07:12:34;101026.88;;;1.72;100.00
51452;BME280;37521;52.020;-1.740;2023-01-29T07:15:02;101030.38;;;1.77;100.00
51452;BME280;37521;52.020;-1.740;2023-01-29T07:17:32;101013.00;;;1.76;100.00
51452;BME280;37521;52.020;-1.740;2023-01-29T07:20:00;101022.56;;;1.77;100.00
51452;BME280;37521;52.020;-1.740;2023-01-29T07:22:28;101016.50;;;1.78;100.00
51452;BME280;37521;52.020;-1.740;2023-01-29T07:24:56;101011.31;;;1.84;100.00
51452;BME280;37521;52.020;-1.740;2023-01-29T07:27:25;101006.19;;;1.96;100.00
51452;BME280;37521;52.020;-1.740;2023-01-29T07:29:54;101013.19;;;2.09;100.00
51452;BME280;37521;52.020;-1.740;2023-01-29T07:32:22;101008.88;;;2.14;100.00
51452;BME280;37521;52.020;-1.740;2023-01-29T07:34:52;101015.84;;;2.22;100.00
51452;BME280;37521;52.020;-1.740;2023-01-29T07:37:20;101009.78;;;2.29;100.00
51452;BME280;37521;52.020;-1.740;2023-01-29T07:39:48;101001.97;;;2.39;100.00
51452;BME280;37521;52.020;-1.740;2023-01-29T07:42:17;101002.00;;;2.47;100.00
51452;BME280;37521;52.020;-1.740;2023-01-29T07:44:45;101007.25;;;2.50;100.00
51452;BME280;37521;52.020;-1.740;2023-01-29T07:47:13;101004.63;;;2.53;100.00
51452;BME280;37521;52.020;-1.740;2023-01-29T07:49:43;101006.38;;;2.57;100.00
51452;BME280;37521;52.020;-1.740;2023-01-29T07:52:12;101011.59;;;2.59;100.00
51452;BME280;37521;52.020;-1.740;2023-01-29T07:54:40;101018.56;;;2.64;100.00
51452;BME280;37521;52.020;-1.740;2023-01-29T07:57:09;101015.09;;;2.68;100.00
51452;BME280;37521;52.020;-1.740;2023-01-29T07:59:37;101012.50;;;2.73;100.00
51452;BME280;37521;52.020;-1.740;2023-01-29T08:02:05;101018.63;;;2.81;100.00
51452;BME280;37521;52.020;-1.740;2023-01-29T08:04:33;101016.00;;;2.84;100.00
51452;BME280;37521;52.020;-1.740;2023-01-29T08:07:02;101009.06;;;2.89;100.00
51452;BME280;37521;52.020;-1.740;2023-01-29T08:09:32;101018.63;;;2.95;100.00
51452;BME280;37521;52.020;-1.740;2023-01-29T08:12:00;101014.25;;;3.00;100.00
51452;BME280;37521;52.020;-1.740;2023-01-29T08:14:28;100998.59;;;3.06;100.00
51452;BME280;37521;52.020;-1.740;2023-01-29T08:16:56;100999.47;;;3.11;100.00
51452;BME280;37521;52.020;-1.740;2023-01-29T08:19:24;100993.41;;;3.17;100.00
51452;BME280;37521;52.020;-1.740;2023-01-29T08:21:52;100996.88;;;3.20;100.00
51452;BME280;37521;52.020;-1.740;2023-01-29T08:24:21;100994.25;;;3.26;100.00
51452;BME280;37521;52.020;-1.740;2023-01-29T08:27:03;100997.75;;;3.28;100.00
51452;BME280;37521;52.020;-1.740;2023-01-29T08:29:31;100989.03;;;3.30;100.00
51452;BME280;37521;52.020;-1.740;2023-01-29T08:31:59;100989.03;;;3.30;100.00
51452;BME280;37521;52.020;-1.740;2023-01-29T08:34:28;100995.97;;;3.34;100.00
51452;BME280;37521;52.020;-1.740;2023-01-29T08:36:56;100998.63;;;3.35;100.00
51452;BME280;37521;52.020;-1.740;2023-01-29T08:39:24;101003.84;;;3.35;100.00
51452;BME280;37521;52.020;-1.740;2023-01-29T08:41:52;101004.72;;;3.36;100.00
51452;BME280;37521;52.020;-1.740;2023-01-29T08:44:22;101002.09;;;3.37;100.00
51452;BME280;37521;52.020;-1.740;2023-01-29T08:46:50;101008.19;;;3.38;100.00
51452;BME280;37521;52.020;-1.740;2023-01-29T08:49:18;101009.03;;;3.40;100.00
51452;BME280;37521;52.020;-1.740;2023-01-29T08:51:46;101016.88;;;3.43;100.00
51452;BME280;37521;52.020;-1.740;2023-01-29T08:54:15;101009.03;;;3.44;100.00
51452;BME280;37521;52.020;-1.740;2023-01-29T08:56:43;101017.72;;;3.46;100.00
51452;BME280;37521;52.020;-1.740;2023-01-29T08:59:11;101014.25;;;3.49;100.00
51452;BME280;37521;52.020;-1.740;2023-01-29T09:01:41;101009.91;;;3.49;100.00
51452;BME280;37521;52.020;-1.740;2023-01-29T09:04:09;101006.41;;;3.52;100.00
51452;BME280;37521;52.020;-1.740;2023-01-29T09:06:37;101007.28;;;3.55;100.00
51452;BME280;37521;52.020;-1.740;2023-01-29T09:09:06;101004.66;;;3.57;100.00
51452;BME280;37521;52.020;-1.740;2023-01-29T09:11:34;101005.53;;;3.62;100.00
51452;BME280;37521;52.020;-1.740;2023-01-29T09:14:03;100998.56;;;3.69;100.00
51452;BME280;37521;52.020;-1.740;2023-01-29T09:16:32;100999.41;;;3.75;100.00
51452;BME280;37521;52.020;-1.740;2023-01-29T09:19:01;100995.03;;;3.80;100.00
51452;BME280;37521;52.020;-1.740;2023-01-29T09:21:29;100998.53;;;3.82;100.00
51452;BME280;37521;52.020;-1.740;2023-01-29T09:23:58;100993.25;;;3.87;100.00
51452;BME280;37521;52.020;-1.740;2023-01-29T09:26:26;100997.63;;;3.91;100.00
51452;BME280;37521;52.020;-1.740;2023-01-29T09:28:54;101002.81;;;3.93;100.00
51452;BME280;37521;52.020;-1.740;2023-01-29T09:31:23;101001.97;;;3.92;100.00
51452;BME280;37521;52.020;-1.740;2023-01-29T09:33:51;101012.41;;;3.91;100.00
51452;BME280;37521;52.020;-1.740;2023-01-29T09:36:21;101004.59;;;3.91;100.00
51452;BME280;37521;52.020;-1.740;2023-01-29T09:38:49;101001.97;;;3.89;100.00
51452;BME280;37521;52.020;-1.740;2023-01-29T09:41:29;101006.31;;;3.92;100.00
51452;BME280;37521;52.020;-1.740;2023-01-29T09:44:02;100989.75;;;3.93;100.00
51452;BME280;37521;52.020;-1.740;2023-01-29T09:46:34;100993.25;;;3.95;100.00
51452;BME280;37521;52.020;-1.740;2023-01-29T09:49:11;100986.28;;;3.97;100.00
51452;BME280;37521;52.020;-1.740;2023-01-29T09:51:45;100981.91;;;3.99;100.00
51452;BME280;37521;52.020;-1.740;2023-01-29T09:54:18;100983.63;;;4.00;100.00
51452;BME280;37521;52.020;-1.740;2023-01-29T09:56:52;100980.16;;;4.01;100.00
51452;BME280;37521;52.020;-1.740;2023-01-29T09:59:24;100981.91;;;4.02;100.00
51452;BME280;37521;52.020;-1.740;2023-01-29T10:02:00;100988.84;;;4.06;100.00
51452;BME280;37521;52.020;-1.740;2023-01-29T10:04:58;100984.47;;;4.11;100.00
51452;BME280;37521;52.020;-1.740;2023-01-29T10:07:45;100978.34;;;4.18;100.00
51452;BME280;37521;52.020;-1.740;2023-01-29T10:10:30;100980.94;;;4.24;100.00
51452;BME280;37521;52.020;-1.740;2023-01-29T10:13:12;100978.25;;;4.33;100.00
51452;BME280;37521;52.020;-1.740;2023-01-29T10:15:53;100978.22;;;4.43;100.00
51452;BME280;37521;52.020;-1.740;2023-01-29T10:18:36;100964.22;;;4.50;100.00
51452;BME280;37521;52.020;-1.740;2023-01-29T10:21:23;100959.78;;;4.61;100.00
51452;BME280;37521;52.020;-1.740;2023-01-29T10:24:02;100964.13;;;4.68;100.00
51452;BME280;37521;52.020;-1.740;2023-01-29T10:26:32;100965.81;;;4.75;100.00
51452;BME280;37521;52.020;-1.740;2023-01-29T10:29:06;100961.38;;;4.80;100.00
51452;BME280;37521;52.020;-1.740;2023-01-29T10:31:37;100963.97;;;4.86;100.00
51452;BME280;37521;52.020;-1.740;2023-01-29T10:34:11;100952.59;;;4.90;100.00
51452;BME280;37521;52.020;-1.740;2023-01-29T10:36:43;100953.41;;;4.99;100.00
51452;BME280;37521;52.020;-1.740;2023-01-29T10:39:16;100948.13;;;5.05;100.00
51452;BME280;37521;52.020;-1.740;2023-01-29T10:41:56;100939.38;;;5.09;100.00
51452;BME280;37521;52.020;-1.740;2023-01-29T10:44:32;100939.31;;;5.12;100.00
51452;BME280;37521;52.020;-1.740;2023-01-29T10:47:16;100936.72;;;5.12;100.00
51452;BME280;37521;52.020;-1.740;2023-01-29T10:50:04;100938.41;;;5.17;100.00
51452;BME280;37521;52.020;-1.740;2023-01-29T10:52:43;100938.38;;;5.22;100.00
51452;BME280;37521;52.020;-1.740;2023-01-29T10:55:29;100932.22;;;5.26;100.00
51452;BME280;37521;52.020;-1.740;2023-01-29T10:58:07;100926.09;;;5.29;100.00
51452;BME280;37521;52.020;-1.740;2023-01-29T11:00:41;100934.81;;;5.29;100.00
51452;BME280;37521;52.020;-1.740;2023-01-29T11:03:14;100936.53;;;5.32;100.00
51452;BME280;37521;52.020;-1.740;2023-01-29T11:06:09;100928.63;;;5.36;100.00
51452;BME280;37521;52.020;-1.740;2023-01-29T11:08:43;100920.72;;;5.42;100.00
51452;BME280;37521;52.020;-1.740;2023-01-29T11:11:16;100919.81;;;5.45;100.00
51452;BME280;37521;52.020;-1.740;2023-01-29T11:13:53;100915.41;;;5.47;100.00
51452;BME280;37521;52.020;-1.740;2023-01-29T11:16:24;100907.56;;;5.45;100.00
51452;BME280;37521;52.020;-1.740;2023-01-29T11:18:55;100910.16;;;5.49;100.00
51452;BME280;37521;52.020;-1.740;2023-01-29T11:21:26;100890.03;;;5.52;100.00
51452;BME280;37521;52.020;-1.740;2023-01-29T11:24:05;100896.09;;;5.54;100.00
51452;BME280;37521;52.020;-1.740;2023-01-29T11:26:38;100891.72;;;5.58;100.00
51452;BME280;37521;52.020;-1.740;2023-01-29T11:29:29;100891.66;;;5.61;100.00
51452;BME280;37521;52.020;-1.740;2023-01-29T11:32:00;100877.66;;;5.65;100.00
51452;BME280;37521;52.020;-1.740;2023-01-29T11:34:30;100880.22;;;5.68;100.00
51452;BME280;37521;52.020;-1.740;2023-01-29T11:37:00;100879.31;;;5.72;100.00
51452;BME280;37521;52.020;-1.740;2023-01-29T11:39:30;100880.16;;;5.76;100.00
51452;BME280;37521;52.020;-1.740;2023-01-29T11:42:01;100868.78;;;5.75;100.00
51452;BME280;37521;52.020;-1.740;2023-01-29T11:44:32;100863.53;;;5.78;100.00
51452;BME280;37521;52.020;-1.740;2023-01-29T11:47:21;100854.75;;;5.82;100.00
51452;BME280;37521;52.020;-1.740;2023-01-29T11:49:54;100840.75;;;5.83;100.00
51452;BME280;37521;52.020;-1.740;2023-01-29T11:52:24;100847.66;;;5.87;100.00
51452;BME280;37521;52.020;-1.740;2023-01-29T11:54:56;100839.81;;;5.89;100.00
51452;BME280;37521;52.020;-1.740;2023-01-29T11:57:29;100829.22;;;5.95;100.00
51452;BME280;37521;52.020;-1.740;2023-01-29T12:00:02;100829.97;;;6.06;100.00
51452;BME280;37521;52.020;-1.740;2023-01-29T12:02:36;100810.47;;;6.24;100.00
51452;BME280;37521;52.020;-1.740;2023-01-29T12:05:13;100813.72;;;6.38;100.00
51452;BME280;37521;52.020;-1.740;2023-01-29T12:07:44;100799.53;;;6.51;100.00
51452;BME280;37521;52.020;-1.740;2023-01-29T12:10:29;100796.75;;;6.59;100.00
51452;BME280;37521;52.020;-1.740;2023-01-29T12:13:16;100785.41;;;6.59;100.00
51452;BME280;37521;52.020;-1.740;2023-01-29T12:15:48;100792.44;;;6.57;100.00
51452;BME280;37521;52.020;-1.740;2023-01-29T12:18:25;100780.03;;;6.65;100.00
51452;BME280;37521;52.020;-1.740;2023-01-29T12:20:58;100772.03;;;6.72;100.00
51452;BME280;37521;52.020;-1.740;2023-01-29T12:23:35;100778.16;;;6.73;100.00
51452;BME280;37521;52.020;-1.740;2023-01-29T12:26:10;100764.00;;;6.80;100.00
51452;BME280;37521;52.020;-1.740;2023-01-29T12:28:45;100757.66;;;6.92;100.00
51452;BME280;37521;52.020;-1.740;2023-01-29T12:31:25;100756.53;;;7.05;100.00
51452;BME280;37521;52.020;-1.740;2023-01-29T12:34:00;100738.91;;;7.12;100.00
51452;BME280;37521;52.020;-1.740;2023-01-29T12:36:37;100739.00;;;7.05;100.00
51452;BME280;37521;52.020;-1.740;2023-01-29T12:39:09;100733.09;;;6.94;100.00
51452;BME280;37521;52.020;-1.740;2023-01-29T12:41:42;100736.06;;;6.77;100.00
51452;BME280;37521;52.020;-1.740;2023-01-29T12:44:17;100732.84;;;6.63;100.00
51452;BME280;37521;52.020;-1.740;2023-01-29T12:46:50;100734.03;;;6.45;100.00
51452;BME280;37521;52.020;-1.740;2023-01-29T12:49:23;100731.59;;;6.36;100.00
51452;BME280;37521;52.020;-1.740;2023-01-29T12:51:56;100728.22;;;6.30;100.00
51452;BME280;37521;52.020;-1.740;2023-01-29T12:54:34;100722.19;;;6.23;100.00
51452;BME280;37521;52.020;-1.740;2023-01-29T12:57:08;100717.88;;;6.19;100.00
51452;BME280;37521;52.020;-1.740;2023-01-29T12:59:42;100718.81;;;6.15;100.00
51452;BME280;37521;52.020;-1.740;2023-01-29T13:02:19;100714.38;;;6.20;100.00
51452;BME280;37521;52.020;-1.740;2023-01-29T13:04:56;100709.91;;;6.25;100.00
51452;BME280;37521;52.020;-1.740;2023-01-29T13:07:29;100694.91;;;6.33;100.00
51452;BME280;37521;52.020;-1.740;2023-01-29T13:10:04;100688.63;;;6.43;100.00
51452;BME280;37521;52.020;-1.740;2023-01-29T13:12:35;100681.38;;;6.54;100.00